ENAN/ANX METAR and TAF weather

Enter ICAO airport designator
Station Type Date Time Source
ENAN METAR 2019/04/19 22:50 UTC NOAA

ENAN 192250Z AUTO 21011KT 9999 FEW024/// SCT042/// OVC150/// 06/03 Q1026


Station Type Date Time Source
ENAN Decoded METAR 2019/04/19 22:50 UTC NOAA

Andoya, Norway (ENAN) 69-18N 016-09E 14M
Apr 19, 2019 - 06:50 PM EDT / 2019.04.19 2250 UTC
Wind: from the SSW (210 degrees) at 13 MPH (11 KT):0
Visibility: greater than 7 mile(s):0
Sky conditions: overcast
Temperature: 42 F (6 C)
Dew Point: 37 F (3 C)
Relative Humidity: 81%
Pressure (altimeter): 30.30 in. Hg (1026 hPa)
ob: ENAN 192250Z AUTO 21011KT 9999 FEW024/// SCT042/// OVC150/// 06/03 Q1026
cycle: 23

Station Type Date Time Source
ENAN TAF 2019/04/19 18:57 UTC NOAA

TAF TAF ENAN 191700Z 1918/2018 21015KT 9999 FEW020 BKN080
TEMPO 1918/2003 BKN008
TEMPO 2016/2018 23018G28KT

Example: see airport list